• Join FlightAware (Why Join?)
  • Login
  • US Flag 
03:42AM EDT


 

Airport Tracker/Info


-or-


 

Live Flight TrackerFlight Track Log ✈ DAL3796 ✈ 17-Oct-2013 ✈ KDTW - KBMI

Flight Track Log - Related Links

Times and Time Zones

All times are in EDT time to prevent confusion due to time zone crossing. See the DAL3796 flight status page for this flight to view local times or setup timezone preferences in your user account.

Time Position Orientation Groundspeed Altitude Reporting Facility
EDT Latitude Longitude Course Direction KTS MPH feet Rate Location/Type
08:40PM 42.2081 -83.3675 203° Southwest 140 161 1,500  Level Cleveland Center
08:41PM 42.1928 -83.3764 203° Southwest 162 186 2,200 1,860 Climbing Cleveland Center
08:42PM 42.1567 -83.3969 203° Southwest 192 221 4,100 2,400 Climbing Cleveland Center
08:42PM 42.1422 -83.4061 205° Southwest 209 241 4,700 2,400 Climbing Cleveland Center
08:43PM 42.0875 -83.4433 207° Southwest 248 285 6,600 2,460 Climbing Cleveland Center
08:43PM 42.0753 -83.4583 222° Southwest 258 297 7,500 2,940 Climbing Cleveland Center
08:44PM 42.0281 -83.4956 210° Southwest 262 302 9,700 2,280 Climbing Cleveland Center
08:45PM 41.9542 -83.5583 212° Southwest 288 331 12,000 2,160 Climbing Cleveland Center
08:46PM 41.8781 -83.6222 212° Southwest 315 362 14,200 1,980 Climbing Cleveland Center
08:47PM 41.8017 -83.6867 212° Southwest 323 372 16,200 1,740 Climbing Cleveland Center
08:48PM 41.7242 -83.7536 213° Southwest 330 380 17,800 1,800 Climbing Cleveland Center
08:49PM 41.6267 -83.8325 211° Southwest 340 391 20,000 1,740 Climbing Cleveland Center
08:50PM 41.5456 -83.8981 211° Southwest 341 392 21,500 1,320 Climbing Cleveland Center
08:51PM 41.4631 -83.9639 211° Southwest 345 397 22,800 1,200 Climbing Cleveland Center
08:52PM 41.3769 -84.0300 210° Southwest 355 409 24,000 1,140 Climbing Cleveland Center
08:53PM 41.2786 -84.1069 210° Southwest 359 413 25,200 960 Climbing Cleveland Center
08:54PM 41.2292 -84.2100 237° Southwest 333 383 26,000 360 Climbing Cleveland Center
08:55PM 41.1983 -84.3297 251° West 340 391 26,000  Level Cleveland Center
08:56PM 41.1661 -84.4556 251° West 355 409 26,000  Level Cleveland Center
08:57PM 41.1339 -84.5858 252° West 369 425 26,000  Level Cleveland Center
08:58PM 41.1014 -84.7164 252° West 370 426 26,000  Level Cleveland Center
08:59PM 41.0664 -84.8478 251° West 376 433 26,000  Level Cleveland Center
09:00PM 41.0258 -85.0081 252° West 380 437 26,000  Level Cleveland Center
09:01PM 40.9908 -85.1408 251° West 381 438 26,000  Level Cleveland Center
09:02PM 40.9686 -85.2778 258° West 378 435 26,000  Level Cleveland Center
09:03PM 40.9519 -85.4186 261° West 382 440 26,000  Level Cleveland Center
09:04PM 40.9344 -85.5586 261° West 384 442 26,000  Level Cleveland Center
09:05PM 40.9169 -85.6989 261° West 386 444 26,000  Level Cleveland Center
09:06PM 40.8989 -85.8383 260° West 384 442 26,000  Level Cleveland Center
09:07PM 40.8808 -85.9817 261° West 391 450 26,000  Level Cleveland Center
09:08PM 40.8594 -86.1522 261° West 392 451 26,000  Level Cleveland Center
09:10PM 40.8328 -86.3503 260° West 395 455 26,000  Level Chicago Center
09:11PM 40.8139 -86.4922 260° West 394 453 26,000  Level Chicago Center
09:12PM 40.7958 -86.6344 261° West 394 453 26,000  Level Chicago Center
09:13PM 40.7742 -86.7983 260° West 394 453 26,000  Level Chicago Center
09:14PM 40.7556 -86.9414 260° West 396 456 26,000 -300 Level Chicago Center
09:15PM 40.7347 -87.0856 259° West 400 460 25,400 -1,080 Descending Chicago Center
09:16PM 40.7144 -87.2356 260° West 397 457 23,800 -1,800 Descending Chicago Center
09:17PM 40.6961 -87.3650 259° West 387 445 21,700 -2,280 Descending Chicago Center
09:18PM 40.6806 -87.4875 261° West 349 402 19,100 -2,400 Descending Chicago Center
09:19PM 40.6572 -87.6483 259° West 372 428 16,800 -2,040 Descending Chicago Center
09:20PM 40.6392 -87.7778 260° West 363 418 15,000 -1,800 Descending Chicago Center
09:21PM 40.6197 -87.9078 259° West 360 414 13,200 -1,680 Descending Chicago Center
09:22PM 40.6022 -88.0369 260° West 360 414 11,600 -1,140 Descending Chicago Center
09:23PM 40.5831 -88.1606 258° West 347 399 10,900 -900 Descending Chicago Center
09:24PM 40.5694 -88.2597 260° West 281 323 9,800 -1,560 Descending Chicago Center
09:25PM 40.5550 -88.3669 260° West 250 288 7,700 -1,800 Descending Chicago Center
09:26PM 40.5425 -88.4536 259° West 244 281 6,100 -1,560 Descending Chicago Center
09:27PM 40.5319 -88.5356 260° West 233 268 4,500 -1,560 Descending Chicago Center
09:29PM 40.5192 -88.6164 258° West 229 264 3,000 -780 Descending Chicago Center
09:30PM 40.5014 -88.6825 251° West 198 228 3,000  Level Chicago Center
09:31PM 40.4825 -88.7436 248° West 189 217 3,000 -240 Level Chicago Center
09:32PM 40.4672 -88.8067 252° West 164 189 2,600 -540 Descending Chicago Center
09:33PM 40.4631 -88.8511 263° West 142 163 1,900 -720 Descending Chicago Center
09:34PM 40.4728 -88.8944 286° West 130 150 1,200 -480 Descending Chicago Center
09:35PM 40.4831 -88.9375 287° West 129 148 1,000 -240 Descending Chicago Center
09:37PM 40.4771 -88.9159 246° West  Level Estimated